sensor_id;sensor_type;location;lat;lon;timestamp;temperature;humidity
35680;DHT22;21803;53.586;10.040;2024-02-28T00:01:37;19.00;43.30
35680;DHT22;21803;53.586;10.040;2024-02-28T00:04:02;19.00;43.30
35680;DHT22;21803;53.586;10.040;2024-02-28T00:06:28;19.00;43.30
35680;DHT22;21803;53.586;10.040;2024-02-28T00:08:54;19.00;43.40
35680;DHT22;21803;53.586;10.040;2024-02-28T00:11:20;19.00;43.30
35680;DHT22;21803;53.586;10.040;2024-02-28T00:13:46;19.00;43.30
35680;DHT22;21803;53.586;10.040;2024-02-28T00:16:12;19.00;43.30
35680;DHT22;21803;53.586;10.040;2024-02-28T00:18:37;19.00;43.30
35680;DHT22;21803;53.586;10.040;2024-02-28T00:21:03;19.00;43.30
35680;DHT22;21803;53.586;10.040;2024-02-28T00:23:29;19.00;43.20
35680;DHT22;21803;53.586;10.040;2024-02-28T00:25:55;19.00;43.20
35680;DHT22;21803;53.586;10.040;2024-02-28T00:28:21;19.00;43.20
35680;DHT22;21803;53.586;10.040;2024-02-28T00:30:46;19.00;43.20
35680;DHT22;21803;53.586;10.040;2024-02-28T00:33:12;19.00;43.20
35680;DHT22;21803;53.586;10.040;2024-02-28T00:35:39;18.90;43.10
35680;DHT22;21803;53.586;10.040;2024-02-28T00:38:05;19.00;43.20
35680;DHT22;21803;53.586;10.040;2024-02-28T00:40:30;19.00;43.20
35680;DHT22;21803;53.586;10.040;2024-02-28T00:42:57;19.00;43.20
35680;DHT22;21803;53.586;10.040;2024-02-28T00:45:23;19.00;43.20
35680;DHT22;21803;53.586;10.040;2024-02-28T00:47:49;19.00;43.10
35680;DHT22;21803;53.586;10.040;2024-02-28T00:50:14;19.00;43.10
35680;DHT22;21803;53.586;10.040;2024-02-28T00:52:40;19.00;43.20
35680;DHT22;21803;53.586;10.040;2024-02-28T00:55:06;19.00;43.10
35680;DHT22;21803;53.586;10.040;2024-02-28T00:57:32;19.00;43.10
35680;DHT22;21803;53.586;10.040;2024-02-28T00:59:58;19.00;43.10
35680;DHT22;21803;53.586;10.040;2024-02-28T01:02:24;19.00;43.10
35680;DHT22;21803;53.586;10.040;2024-02-28T01:04:49;19.00;43.10
35680;DHT22;21803;53.586;10.040;2024-02-28T01:07:15;18.90;43.00
35680;DHT22;21803;53.586;10.040;2024-02-28T01:09:41;19.00;43.10
35680;DHT22;21803;53.586;10.040;2024-02-28T01:12:07;19.00;43.10
35680;DHT22;21803;53.586;10.040;2024-02-28T01:14:33;19.00;43.10
35680;DHT22;21803;53.586;10.040;2024-02-28T01:16:58;19.00;43.10
35680;DHT22;21803;53.586;10.040;2024-02-28T01:19:24;19.00;43.10
35680;DHT22;21803;53.586;10.040;2024-02-28T01:21:49;19.00;43.00
35680;DHT22;21803;53.586;10.040;2024-02-28T01:24:15;19.00;43.10
35680;DHT22;21803;53.586;10.040;2024-02-28T01:26:40;19.00;43.10
35680;DHT22;21803;53.586;10.040;2024-02-28T01:29:07;19.00;43.10
35680;DHT22;21803;53.586;10.040;2024-02-28T01:31:32;19.00;43.00
35680;DHT22;21803;53.586;10.040;2024-02-28T01:33:58;19.00;43.00
35680;DHT22;21803;53.586;10.040;2024-02-28T01:36:23;19.00;43.10
35680;DHT22;21803;53.586;10.040;2024-02-28T01:38:49;19.00;43.10
35680;DHT22;21803;53.586;10.040;2024-02-28T01:41:14;19.00;43.00
35680;DHT22;21803;53.586;10.040;2024-02-28T01:43:40;19.00;43.00
35680;DHT22;21803;53.586;10.040;2024-02-28T01:46:20;19.00;43.00
35680;DHT22;21803;53.586;10.040;2024-02-28T01:48:47;19.00;43.00
35680;DHT22;21803;53.586;10.040;2024-02-28T01:51:13;19.00;43.00
35680;DHT22;21803;53.586;10.040;2024-02-28T01:53:39;19.00;43.00
35680;DHT22;21803;53.586;10.040;2024-02-28T01:56:05;19.00;43.00
35680;DHT22;21803;53.586;10.040;2024-02-28T01:58:31;18.90;42.90
35680;DHT22;21803;53.586;10.040;2024-02-28T02:00:59;19.00;43.00
35680;DHT22;21803;53.586;10.040;2024-02-28T02:03:26;19.00;43.00
35680;DHT22;21803;53.586;10.040;2024-02-28T02:05:51;18.90;42.90
35680;DHT22;21803;53.586;10.040;2024-02-28T02:08:17;19.00;43.00
35680;DHT22;21803;53.586;10.040;2024-02-28T02:10:42;18.90;42.90
35680;DHT22;21803;53.586;10.040;2024-02-28T02:13:08;19.00;43.00
35680;DHT22;21803;53.586;10.040;2024-02-28T02:15:34;18.90;42.90
35680;DHT22;21803;53.586;10.040;2024-02-28T02:17:59;18.90;42.90
35680;DHT22;21803;53.586;10.040;2024-02-28T02:20:26;19.00;43.00
35680;DHT22;21803;53.586;10.040;2024-02-28T02:22:54;18.90;42.90
35680;DHT22;21803;53.586;10.040;2024-02-28T02:25:20;19.00;42.90
35680;DHT22;21803;53.586;10.040;2024-02-28T02:27:45;19.00;43.00
35680;DHT22;21803;53.586;10.040;2024-02-28T02:30:11;18.90;42.90
35680;DHT22;21803;53.586;10.040;2024-02-28T02:32:37;19.00;43.60
35680;DHT22;21803;53.586;10.040;2024-02-28T02:35:03;18.90;42.90
35680;DHT22;21803;53.586;10.040;2024-02-28T02:37:28;18.90;42.90
35680;DHT22;21803;53.586;10.040;2024-02-28T02:39:54;18.90;42.90
35680;DHT22;21803;53.586;10.040;2024-02-28T02:42:19;19.00;42.90
35680;DHT22;21803;53.586;10.040;2024-02-28T02:44:45;18.90;42.90
35680;DHT22;21803;53.586;10.040;2024-02-28T02:47:11;18.90;42.90
35680;DHT22;21803;53.586;10.040;2024-02-28T02:49:36;18.90;42.90
35680;DHT22;21803;53.586;10.040;2024-02-28T02:52:02;18.90;42.90
35680;DHT22;21803;53.586;10.040;2024-02-28T02:54:27;18.90;42.90
35680;DHT22;21803;53.586;10.040;2024-02-28T02:56:53;19.00;43.00
35680;DHT22;21803;53.586;10.040;2024-02-28T02:59:19;18.90;42.90
35680;DHT22;21803;53.586;10.040;2024-02-28T03:01:47;18.90;42.90
35680;DHT22;21803;53.586;10.040;2024-02-28T03:04:13;18.90;42.90
35680;DHT22;21803;53.586;10.040;2024-02-28T03:06:38;18.90;42.90
35680;DHT22;21803;53.586;10.040;2024-02-28T03:09:04;18.90;42.90
35680;DHT22;21803;53.586;10.040;2024-02-28T03:11:29;18.90;42.90
35680;DHT22;21803;53.586;10.040;2024-02-28T03:13:55;18.90;42.90
35680;DHT22;21803;53.586;10.040;2024-02-28T03:16:20;18.90;42.90
35680;DHT22;21803;53.586;10.040;2024-02-28T03:18:46;18.90;42.90
35680;DHT22;21803;53.586;10.040;2024-02-28T03:21:11;18.90;42.90
35680;DHT22;21803;53.586;10.040;2024-02-28T03:23:37;18.90;43.50
35680;DHT22;21803;53.586;10.040;2024-02-28T03:26:03;18.90;42.90
35680;DHT22;21803;53.586;10.040;2024-02-28T03:28:29;18.90;42.90
35680;DHT22;21803;53.586;10.040;2024-02-28T03:30:54;18.90;42.90
35680;DHT22;21803;53.586;10.040;2024-02-28T03:33:20;18.90;42.90
35680;DHT22;21803;53.586;10.040;2024-02-28T03:35:45;18.90;42.90
35680;DHT22;21803;53.586;10.040;2024-02-28T03:38:11;18.90;42.90
35680;DHT22;21803;53.586;10.040;2024-02-28T03:40:36;21.80;44.30
35680;DHT22;21803;53.586;10.040;2024-02-28T03:43:02;19.00;42.90
35680;DHT22;21803;53.586;10.040;2024-02-28T03:45:28;18.90;42.80
35680;DHT22;21803;53.586;10.040;2024-02-28T03:47:57;18.90;42.80
35680;DHT22;21803;53.586;10.040;2024-02-28T03:50:22;18.90;42.80
35680;DHT22;21803;53.586;10.040;2024-02-28T03:52:48;18.90;42.80
35680;DHT22;21803;53.586;10.040;2024-02-28T03:55:13;18.90;42.80
35680;DHT22;21803;53.586;10.040;2024-02-28T03:57:40;18.90;42.70
35680;DHT22;21803;53.586;10.040;2024-02-28T04:00:06;18.90;42.80
35680;DHT22;21803;53.586;10.040;2024-02-28T04:02:32;18.90;42.70
35680;DHT22;21803;53.586;10.040;2024-02-28T04:04:58;18.90;42.70
35680;DHT22;21803;53.586;10.040;2024-02-28T04:07:23;18.90;42.70
35680;DHT22;21803;53.586;10.040;2024-02-28T04:09:49;18.90;42.70
35680;DHT22;21803;53.586;10.040;2024-02-28T04:12:15;18.90;42.70
35680;DHT22;21803;53.586;10.040;2024-02-28T04:14:40;18.90;42.70
35680;DHT22;21803;53.586;10.040;2024-02-28T04:17:06;18.90;42.70
35680;DHT22;21803;53.586;10.040;2024-02-28T04:19:34;18.90;42.70
35680;DHT22;21803;53.586;10.040;2024-02-28T04:22:03;18.90;42.70
35680;DHT22;21803;53.586;10.040;2024-02-28T04:24:28;18.90;42.70
35680;DHT22;21803;53.586;10.040;2024-02-28T04:26:54;18.90;42.70
35680;DHT22;21803;53.586;10.040;2024-02-28T04:29:19;18.90;42.70
35680;DHT22;21803;53.586;10.040;2024-02-28T04:31:45;18.90;42.60
35680;DHT22;21803;53.586;10.040;2024-02-28T04:34:10;18.90;42.70
35680;DHT22;21803;53.586;10.040;2024-02-28T04:36:36;18.80;42.60
35680;DHT22;21803;53.586;10.040;2024-02-28T04:39:02;18.90;42.60
35680;DHT22;21803;53.586;10.040;2024-02-28T04:41:29;18.90;42.70
35680;DHT22;21803;53.586;10.040;2024-02-28T04:43:55;18.90;42.70
35680;DHT22;21803;53.586;10.040;2024-02-28T04:46:20;18.90;42.60
35680;DHT22;21803;53.586;10.040;2024-02-28T04:48:46;18.90;42.60
35680;DHT22;21803;53.586;10.040;2024-02-28T04:51:15;18.90;42.70
35680;DHT22;21803;53.586;10.040;2024-02-28T04:53:43;18.90;42.70
35680;DHT22;21803;53.586;10.040;2024-02-28T04:56:08;18.90;42.70
35680;DHT22;21803;53.586;10.040;2024-02-28T04:58:35;18.90;42.60
35680;DHT22;21803;53.586;10.040;2024-02-28T05:01:01;18.90;42.60
35680;DHT22;21803;53.586;10.040;2024-02-28T05:03:27;18.90;42.60
35680;DHT22;21803;53.586;10.040;2024-02-28T05:05:52;18.90;42.60
35680;DHT22;21803;53.586;10.040;2024-02-28T05:08:21;18.90;42.60
35680;DHT22;21803;53.586;10.040;2024-02-28T05:10:46;18.90;42.60
35680;DHT22;21803;53.586;10.040;2024-02-28T05:13:12;18.90;42.60
35680;DHT22;21803;53.586;10.040;2024-02-28T05:15:38;18.80;42.50
35680;DHT22;21803;53.586;10.040;2024-02-28T05:18:03;18.80;42.50
35680;DHT22;21803;53.586;10.040;2024-02-28T05:20:29;18.90;42.60
35680;DHT22;21803;53.586;10.040;2024-02-28T05:22:55;18.80;42.50
35680;DHT22;21803;53.586;10.040;2024-02-28T05:25:20;18.80;42.60
35680;DHT22;21803;53.586;10.040;2024-02-28T05:27:46;18.90;42.60
35680;DHT22;21803;53.586;10.040;2024-02-28T05:30:11;18.90;42.60
35680;DHT22;21803;53.586;10.040;2024-02-28T05:32:37;18.90;42.60
35680;DHT22;21803;53.586;10.040;2024-02-28T05:35:03;18.90;42.60
35680;DHT22;21803;53.586;10.040;2024-02-28T05:37:28;18.80;42.50
35680;DHT22;21803;53.586;10.040;2024-02-28T05:39:54;18.90;42.60
35680;DHT22;21803;53.586;10.040;2024-02-28T05:42:20;18.90;42.60
35680;DHT22;21803;53.586;10.040;2024-02-28T05:44:49;18.90;42.60
35680;DHT22;21803;53.586;10.040;2024-02-28T05:47:15;18.80;42.60
35680;DHT22;21803;53.586;10.040;2024-02-28T05:49:41;18.80;42.50
35680;DHT22;21803;53.586;10.040;2024-02-28T05:52:06;18.80;42.50
35680;DHT22;21803;53.586;10.040;2024-02-28T05:54:32;18.90;42.60
35680;DHT22;21803;53.586;10.040;2024-02-28T05:56:59;18.80;42.50
35680;DHT22;21803;53.586;10.040;2024-02-28T05:59:25;18.80;42.50
35680;DHT22;21803;53.586;10.040;2024-02-28T06:01:51;18.80;42.50
35680;DHT22;21803;53.586;10.040;2024-02-28T06:04:17;18.80;42.50
35680;DHT22;21803;53.586;10.040;2024-02-28T06:06:43;18.80;42.50
35680;DHT22;21803;53.586;10.040;2024-02-28T06:09:08;18.80;43.20
35680;DHT22;21803;53.586;10.040;2024-02-28T06:11:34;18.80;42.60
35680;DHT22;21803;53.586;10.040;2024-02-28T06:14:00;18.80;42.60
35680;DHT22;21803;53.586;10.040;2024-02-28T06:16:27;18.80;42.50
35680;DHT22;21803;53.586;10.040;2024-02-28T06:18:53;18.80;43.20
35680;DHT22;21803;53.586;10.040;2024-02-28T06:21:22;18.80;42.60
35680;DHT22;21803;53.586;10.040;2024-02-28T06:23:48;18.80;42.50
35680;DHT22;21803;53.586;10.040;2024-02-28T06:26:13;18.80;42.50
35680;DHT22;21803;53.586;10.040;2024-02-28T06:28:45;18.80;42.60
35680;DHT22;21803;53.586;10.040;2024-02-28T06:31:15;18.80;42.60
35680;DHT22;21803;53.586;10.040;2024-02-28T06:33:41;18.80;42.50
35680;DHT22;21803;53.586;10.040;2024-02-28T06:36:07;18.80;42.60
35680;DHT22;21803;53.586;10.040;2024-02-28T06:38:32;18.80;42.50
35680;DHT22;21803;53.586;10.040;2024-02-28T06:41:03;18.80;42.60
35680;DHT22;21803;53.586;10.040;2024-02-28T06:43:28;18.80;42.60
35680;DHT22;21803;53.586;10.040;2024-02-28T06:45:54;18.80;42.50
35680;DHT22;21803;53.586;10.040;2024-02-28T06:48:20;18.80;42.50
35680;DHT22;21803;53.586;10.040;2024-02-28T06:50:45;18.80;42.60
35680;DHT22;21803;53.586;10.040;2024-02-28T06:53:11;18.80;42.60
35680;DHT22;21803;53.586;10.040;2024-02-28T06:55:36;18.80;42.60
35680;DHT22;21803;53.586;10.040;2024-02-28T06:58:02;18.80;42.60
35680;DHT22;21803;53.586;10.040;2024-02-28T07:00:27;18.80;42.60
35680;DHT22;21803;53.586;10.040;2024-02-28T07:02:53;18.80;42.50
35680;DHT22;21803;53.586;10.040;2024-02-28T07:05:19;18.80;42.50
35680;DHT22;21803;53.586;10.040;2024-02-28T07:07:44;18.80;42.50
35680;DHT22;21803;53.586;10.040;2024-02-28T07:10:10;18.90;42.60
35680;DHT22;21803;53.586;10.040;2024-02-28T07:12:36;18.80;42.60
35680;DHT22;21803;53.586;10.040;2024-02-28T07:15:02;18.80;42.50
35680;DHT22;21803;53.586;10.040;2024-02-28T07:17:28;18.80;42.50
35680;DHT22;21803;53.586;10.040;2024-02-28T07:19:53;18.80;42.50
35680;DHT22;21803;53.586;10.040;2024-02-28T07:22:19;18.80;42.50
35680;DHT22;21803;53.586;10.040;2024-02-28T07:24:44;18.80;42.50
35680;DHT22;21803;53.586;10.040;2024-02-28T07:27:10;18.80;42.50
35680;DHT22;21803;53.586;10.040;2024-02-28T07:29:37;18.80;42.50
35680;DHT22;21803;53.586;10.040;2024-02-28T07:32:02;18.90;42.70
35680;DHT22;21803;53.586;10.040;2024-02-28T07:34:28;18.80;42.50
35680;DHT22;21803;53.586;10.040;2024-02-28T07:36:53;18.80;42.50
35680;DHT22;21803;53.586;10.040;2024-02-28T07:39:19;18.80;42.50
35680;DHT22;21803;53.586;10.040;2024-02-28T07:41:46;18.80;42.50
35680;DHT22;21803;53.586;10.040;2024-02-28T07:44:12;18.80;42.50
35680;DHT22;21803;53.586;10.040;2024-02-28T07:46:37;18.80;42.50
35680;DHT22;21803;53.586;10.040;2024-02-28T07:49:03;18.80;42.50
35680;DHT22;21803;53.586;10.040;2024-02-28T07:51:29;18.90;42.50
35680;DHT22;21803;53.586;10.040;2024-02-28T07:53:54;18.80;42.50
35680;DHT22;21803;53.586;10.040;2024-02-28T07:56:20;20.00;43.10
35680;DHT22;21803;53.586;10.040;2024-02-28T07:58:46;18.90;42.60
35680;DHT22;21803;53.586;10.040;2024-02-28T08:01:12;18.90;42.60
35680;DHT22;21803;53.586;10.040;2024-02-28T08:03:38;18.80;42.50
35680;DHT22;21803;53.586;10.040;2024-02-28T08:06:04;18.90;42.60
35680;DHT22;21803;53.586;10.040;2024-02-28T08:08:29;18.90;42.60
35680;DHT22;21803;53.586;10.040;2024-02-28T08:10:55;18.80;42.50
35680;DHT22;21803;53.586;10.040;2024-02-28T08:13:21;18.80;42.50
35680;DHT22;21803;53.586;10.040;2024-02-28T08:15:46;18.90;42.60
35680;DHT22;21803;53.586;10.040;2024-02-28T08:18:12;18.80;42.50
35680;DHT22;21803;53.586;10.040;2024-02-28T08:20:38;18.80;42.60
35680;DHT22;21803;53.586;10.040;2024-02-28T08:23:07;18.90;42.60
35680;DHT22;21803;53.586;10.040;2024-02-28T08:25:33;18.80;42.50
35680;DHT22;21803;53.586;10.040;2024-02-28T08:27:58;18.90;42.60
35680;DHT22;21803;53.586;10.040;2024-02-28T08:30:24;18.90;42.60
35680;DHT22;21803;53.586;10.040;2024-02-28T08:32:50;18.90;42.50
35680;DHT22;21803;53.586;10.040;2024-02-28T08:35:18;18.80;42.50
35680;DHT22;21803;53.586;10.040;2024-02-28T08:37:43;18.90;42.50
35680;DHT22;21803;53.586;10.040;2024-02-28T08:40:10;18.90;42.50
35680;DHT22;21803;53.586;10.040;2024-02-28T08:42:36;18.90;42.50
35680;DHT22;21803;53.586;10.040;2024-02-28T08:45:02;18.90;42.50
35680;DHT22;21803;53.586;10.040;2024-02-28T08:47:29;18.90;42.40
35680;DHT22;21803;53.586;10.040;2024-02-28T08:49:54;19.00;42.50
35680;DHT22;21803;53.586;10.040;2024-02-28T08:52:21;18.50;42.30
35680;DHT22;21803;53.586;10.040;2024-02-28T08:54:47;19.00;42.50
35680;DHT22;21803;53.586;10.040;2024-02-28T08:57:14;19.00;42.40
35680;DHT22;21803;53.586;10.040;2024-02-28T08:59:39;19.00;42.40
35680;DHT22;21803;53.586;10.040;2024-02-28T09:02:06;19.00;42.40
35680;DHT22;21803;53.586;10.040;2024-02-28T09:04:32;19.00;42.40
35680;DHT22;21803;53.586;10.040;2024-02-28T09:06:57;19.00;42.50
35680;DHT22;21803;53.586;10.040;2024-02-28T09:09:23;19.00;42.40
35680;DHT22;21803;53.586;10.040;2024-02-28T09:11:48;19.00;42.40
35680;DHT22;21803;53.586;10.040;2024-02-28T09:14:14;19.00;42.40
35680;DHT22;21803;53.586;10.040;2024-02-28T09:16:39;19.00;42.40
35680;DHT22;21803;53.586;10.040;2024-02-28T09:19:05;19.00;42.40
35680;DHT22;21803;53.586;10.040;2024-02-28T09:21:31;19.10;42.50
35680;DHT22;21803;53.586;10.040;2024-02-28T09:23:57;19.10;42.50
35680;DHT22;21803;53.586;10.040;2024-02-28T09:26:22;19.00;41.90
35680;DHT22;21803;53.586;10.040;2024-02-28T09:28:48;19.00;42.40
35680;DHT22;21803;53.586;10.040;2024-02-28T09:31:14;19.00;42.40
35680;DHT22;21803;53.586;10.040;2024-02-28T09:33:41;19.10;42.50
35680;DHT22;21803;53.586;10.040;2024-02-28T09:36:06;19.00;42.40
35680;DHT22;21803;53.586;10.040;2024-02-28T09:38:32;19.10;42.40
35680;DHT22;21803;53.586;10.040;2024-02-28T09:41:00;19.10;42.40
35680;DHT22;21803;53.586;10.040;2024-02-28T09:43:31;19.10;42.40
35680;DHT22;21803;53.586;10.040;2024-02-28T09:46:00;19.10;42.40
35680;DHT22;21803;53.586;10.040;2024-02-28T09:48:29;19.30;42.60
35680;DHT22;21803;53.586;10.040;2024-02-28T09:50:59;19.10;42.40
35680;DHT22;21803;53.586;10.040;2024-02-28T09:53:25;19.10;42.40
35680;DHT22;21803;53.586;10.040;2024-02-28T09:55:51;19.10;42.40
35680;DHT22;21803;53.586;10.040;2024-02-28T09:58:18;19.10;42.40
35680;DHT22;21803;53.586;10.040;2024-02-28T10:00:45;19.10;42.40
35680;DHT22;21803;53.586;10.040;2024-02-28T10:03:18;19.10;42.40
35680;DHT22;21803;53.586;10.040;2024-02-28T10:05:48;19.10;42.40
35680;DHT22;21803;53.586;10.040;2024-02-28T10:08:14;19.10;42.40
35680;DHT22;21803;53.586;10.040;2024-02-28T10:10:49;19.10;42.40
35680;DHT22;21803;53.586;10.040;2024-02-28T10:13:19;19.10;42.40
35680;DHT22;21803;53.586;10.040;2024-02-28T10:15:45;19.10;42.40
35680;DHT22;21803;53.586;10.040;2024-02-28T10:18:10;19.10;42.50
35680;DHT22;21803;53.586;10.040;2024-02-28T10:20:36;19.10;42.40
35680;DHT22;21803;53.586;10.040;2024-02-28T10:23:06;19.10;42.50
35680;DHT22;21803;53.586;10.040;2024-02-28T10:25:32;19.10;41.90
35680;DHT22;21803;53.586;10.040;2024-02-28T10:28:01;19.10;42.50
35680;DHT22;21803;53.586;10.040;2024-02-28T10:30:27;19.10;42.50
35680;DHT22;21803;53.586;10.040;2024-02-28T10:32:53;19.10;42.50
35680;DHT22;21803;53.586;10.040;2024-02-28T10:35:19;19.10;41.90
35680;DHT22;21803;53.586;10.040;2024-02-28T10:37:51;19.10;42.50
35680;DHT22;21803;53.586;10.040;2024-02-28T10:40:20;19.10;42.40
35680;DHT22;21803;53.586;10.040;2024-02-28T10:42:48;19.10;42.50
35680;DHT22;21803;53.586;10.040;2024-02-28T10:45:14;19.10;42.40
35680;DHT22;21803;53.586;10.040;2024-02-28T10:47:42;19.00;41.90
35680;DHT22;21803;53.586;10.040;2024-02-28T10:50:09;19.10;42.50
35680;DHT22;21803;53.586;10.040;2024-02-28T10:52:38;19.10;42.40
35680;DHT22;21803;53.586;10.040;2024-02-28T10:55:08;19.10;42.50
35680;DHT22;21803;53.586;10.040;2024-02-28T10:57:36;19.10;42.50
35680;DHT22;21803;53.586;10.040;2024-02-28T11:00:03;19.10;42.50
35680;DHT22;21803;53.586;10.040;2024-02-28T11:02:31;19.10;42.50
35680;DHT22;21803;53.586;10.040;2024-02-28T11:04:57;19.10;42.50
35680;DHT22;21803;53.586;10.040;2024-02-28T11:07:24;19.10;42.50
35680;DHT22;21803;53.586;10.040;2024-02-28T11:09:54;19.10;42.50
35680;DHT22;21803;53.586;10.040;2024-02-28T11:12:27;19.10;42.50
35680;DHT22;21803;53.586;10.040;2024-02-28T11:15:04;19.10;42.50
35680;DHT22;21803;53.586;10.040;2024-02-28T11:17:32;19.10;42.50
35680;DHT22;21803;53.586;10.040;2024-02-28T11:19:59;19.10;42.50
35680;DHT22;21803;53.586;10.040;2024-02-28T11:22:28;19.10;42.50
35680;DHT22;21803;53.586;10.040;2024-02-28T11:24:54;19.10;42.50
35680;DHT22;21803;53.586;10.040;2024-02-28T11:27:21;19.10;42.50
35680;DHT22;21803;53.586;10.040;2024-02-28T11:29:47;19.10;42.50
35680;DHT22;21803;53.586;10.040;2024-02-28T11:32:13;19.10;42.50
35680;DHT22;21803;53.586;10.040;2024-02-28T11:34:39;19.10;42.60
35680;DHT22;21803;53.586;10.040;2024-02-28T11:37:06;19.10;42.50
35680;DHT22;21803;53.586;10.040;2024-02-28T11:39:34;19.10;42.50
35680;DHT22;21803;53.586;10.040;2024-02-28T11:42:15;19.10;42.60
35680;DHT22;21803;53.586;10.040;2024-02-28T11:44:42;19.10;42.60
35680;DHT22;21803;53.586;10.040;2024-02-28T11:47:11;19.10;42.60
35680;DHT22;21803;53.586;10.040;2024-02-28T11:49:40;19.10;42.60
35680;DHT22;21803;53.586;10.040;2024-02-28T11:52:05;19.10;42.60
35680;DHT22;21803;53.586;10.040;2024-02-28T11:54:31;19.00;42.60
35680;DHT22;21803;53.586;10.040;2024-02-28T11:56:57;19.10;43.30
35680;DHT22;21803;53.586;10.040;2024-02-28T11:59:23;19.10;42.70
35680;DHT22;21803;53.586;10.040;2024-02-28T12:01:48;19.10;42.70
35680;DHT22;21803;53.586;10.040;2024-02-28T12:04:16;19.00;42.60
35680;DHT22;21803;53.586;10.040;2024-02-28T12:06:41;19.10;42.70
35680;DHT22;21803;53.586;10.040;2024-02-28T12:09:08;19.00;42.60
35680;DHT22;21803;53.586;10.040;2024-02-28T12:11:35;19.10;42.70
35680;DHT22;21803;53.586;10.040;2024-02-28T12:14:04;19.10;42.70
35680;DHT22;21803;53.586;10.040;2024-02-28T12:16:36;19.00;42.70
35680;DHT22;21803;53.586;10.040;2024-02-28T12:19:12;19.10;42.70
35680;DHT22;21803;53.586;10.040;2024-02-28T12:21:38;21.50;43.90
35680;DHT22;21803;53.586;10.040;2024-02-28T12:24:07;19.10;42.80
35680;DHT22;21803;53.586;10.040;2024-02-28T12:26:32;22.40;44.40
35680;DHT22;21803;53.586;10.040;2024-02-28T12:28:58;19.00;42.70
35680;DHT22;21803;53.586;10.040;2024-02-28T12:31:24;19.10;42.80
35680;DHT22;21803;53.586;10.040;2024-02-28T12:33:49;19.10;42.80
35680;DHT22;21803;53.586;10.040;2024-02-28T12:36:15;19.00;42.70
35680;DHT22;21803;53.586;10.040;2024-02-28T12:38:40;17.50;42.00
35680;DHT22;21803;53.586;10.040;2024-02-28T12:41:09;19.00;42.80
35680;DHT22;21803;53.586;10.040;2024-02-28T12:43:35;19.10;42.80
35680;DHT22;21803;53.586;10.040;2024-02-28T12:46:00;19.00;42.80
35680;DHT22;21803;53.586;10.040;2024-02-28T12:48:27;19.10;42.80
35680;DHT22;21803;53.586;10.040;2024-02-28T12:50:52;19.00;42.80
35680;DHT22;21803;53.586;10.040;2024-02-28T12:53:18;19.00;42.80
35680;DHT22;21803;53.586;10.040;2024-02-28T12:55:43;19.00;42.80
35680;DHT22;21803;53.586;10.040;2024-02-28T12:58:10;19.00;42.80
35680;DHT22;21803;53.586;10.040;2024-02-28T13:00:36;19.00;42.80
35680;DHT22;21803;53.586;10.040;2024-02-28T13:03:02;19.00;42.80
35680;DHT22;21803;53.586;10.040;2024-02-28T13:05:28;19.00;42.30
35680;DHT22;21803;53.586;10.040;2024-02-28T13:07:54;19.10;42.90
35680;DHT22;21803;53.586;10.040;2024-02-28T13:10:20;19.00;42.90
35680;DHT22;21803;53.586;10.040;2024-02-28T13:12:47;19.00;42.90
35680;DHT22;21803;53.586;10.040;2024-02-28T13:15:13;19.10;42.90
35680;DHT22;21803;53.586;10.040;2024-02-28T13:17:38;19.00;42.90
35680;DHT22;21803;53.586;10.040;2024-02-28T13:20:04;19.00;42.90
35680;DHT22;21803;53.586;10.040;2024-02-28T13:22:30;19.00;42.90
35680;DHT22;21803;53.586;10.040;2024-02-28T13:24:55;19.00;42.90
35680;DHT22;21803;53.586;10.040;2024-02-28T13:27:21;19.00;42.90
35680;DHT22;21803;53.586;10.040;2024-02-28T13:29:47;19.00;42.90
35680;DHT22;21803;53.586;10.040;2024-02-28T13:32:12;19.00;42.90
35680;DHT22;21803;53.586;10.040;2024-02-28T13:34:39;19.00;42.90
35680;DHT22;21803;53.586;10.040;2024-02-28T13:37:05;19.00;42.90
35680;DHT22;21803;53.586;10.040;2024-02-28T13:39:30;19.00;42.90
35680;DHT22;21803;53.586;10.040;2024-02-28T13:41:57;19.00;43.00
35680;DHT22;21803;53.586;10.040;2024-02-28T13:44:22;19.00;43.00
35680;DHT22;21803;53.586;10.040;2024-02-28T13:46:49;19.00;43.60
35680;DHT22;21803;53.586;10.040;2024-02-28T13:49:17;19.00;43.00
35680;DHT22;21803;53.586;10.040;2024-02-28T13:51:44;19.00;43.00
35680;DHT22;21803;53.586;10.040;2024-02-28T13:54:09;19.00;43.00
35680;DHT22;21803;53.586;10.040;2024-02-28T13:56:35;19.00;43.00
35680;DHT22;21803;53.586;10.040;2024-02-28T13:59:00;19.00;43.00
35680;DHT22;21803;53.586;10.040;2024-02-28T14:01:26;19.00;43.10
35680;DHT22;21803;53.586;10.040;2024-02-28T14:03:51;19.00;43.10
35680;DHT22;21803;53.586;10.040;2024-02-28T14:06:17;19.00;43.10
35680;DHT22;21803;53.586;10.040;2024-02-28T14:08:43;19.00;43.10
35680;DHT22;21803;53.586;10.040;2024-02-28T14:11:08;19.00;43.10
35680;DHT22;21803;53.586;10.040;2024-02-28T14:13:34;19.00;43.20
35680;DHT22;21803;53.586;10.040;2024-02-28T14:15:59;19.00;42.60
35680;DHT22;21803;53.586;10.040;2024-02-28T14:18:25;19.00;43.20
35680;DHT22;21803;53.586;10.040;2024-02-28T14:20:50;19.00;43.10
35680;DHT22;21803;53.586;10.040;2024-02-28T14:23:16;19.00;43.20
35680;DHT22;21803;53.586;10.040;2024-02-28T14:25:43;19.00;43.20
35680;DHT22;21803;53.586;10.040;2024-02-28T14:28:08;20.00;43.70
35680;DHT22;21803;53.586;10.040;2024-02-28T14:30:34;19.00;43.20
35680;DHT22;21803;53.586;10.040;2024-02-28T14:33:00;19.10;43.30
35680;DHT22;21803;53.586;10.040;2024-02-28T14:35:26;19.00;42.70
35680;DHT22;21803;53.586;10.040;2024-02-28T14:37:51;19.00;43.20
35680;DHT22;21803;53.586;10.040;2024-02-28T14:40:18;19.00;43.30
35680;DHT22;21803;53.586;10.040;2024-02-28T14:42:43;19.00;43.30
35680;DHT22;21803;53.586;10.040;2024-02-28T14:45:12;19.00;43.30
35680;DHT22;21803;53.586;10.040;2024-02-28T14:47:38;18.90;43.20
35680;DHT22;21803;53.586;10.040;2024-02-28T14:50:04;19.00;43.30
35680;DHT22;21803;53.586;10.040;2024-02-28T14:52:30;19.00;43.30
35680;DHT22;21803;53.586;10.040;2024-02-28T14:54:56;18.90;43.30
35680;DHT22;21803;53.586;10.040;2024-02-28T14:57:22;18.90;43.30
35680;DHT22;21803;53.586;10.040;2024-02-28T14:59:47;19.00;44.00
35680;DHT22;21803;53.586;10.040;2024-02-28T15:02:13;19.00;43.40
35680;DHT22;21803;53.586;10.040;2024-02-28T15:04:38;19.00;43.40
35680;DHT22;21803;53.586;10.040;2024-02-28T15:07:04;18.90;43.40
35680;DHT22;21803;53.586;10.040;2024-02-28T15:09:30;19.00;43.40